Time;durP1;ratioP1;P1;durP2;ratioP2;P2;SDS_P1;SDS_P2;PMS_P1;PMS_P2;Temp;Humidity;BMP_temperature;BMP_pressure;BME280_temperature;BME280_humidity;BME280_pressure;Samples;Min_cycle;Max_cycle;Signal;HPM_P1;HPM_P2
2022/09/06 00:00:17;;;;;;;10.80;4.30;;;;;;;13.88;43.54;101227.88;117156;1186;23605;-66
2022/09/06 00:02:44;;;;;;;8.40;4.00;;;;;;;13.91;43.46;101224.66;117152;1188;23573;-66
2022/09/06 00:05:12;;;;;;;7.70;4.00;;;;;;;13.94;43.63;101230.25;117116;1182;23664;-66
2022/09/06 00:07:39;;;;;;;8.80;4.30;;;;;;;13.99;43.65;101227.90;117382;1186;22922;-67
2022/09/06 00:10:07;;;;;;;7.60;4.60;;;;;;;14.04;43.56;101231.02;117252;1185;23877;-59
2022/09/06 00:12:34;;;;;;;7.60;4.40;;;;;;;14.09;43.43;101233.25;117203;1184;22913;-66
2022/09/06 00:15:02;;;;;;;8.00;4.10;;;;;;;14.13;43.59;101226.48;117117;1186;21845;-64
2022/09/06 00:17:31;;;;;;;7.10;4.50;;;;;;;14.17;43.55;101224.32;117161;1187;21856;-60
2022/09/06 00:19:58;;;;;;;7.30;3.80;;;;;;;14.22;43.64;101222.31;117245;1182;22221;-59
2022/09/06 00:22:25;;;;;;;7.20;4.00;;;;;;;14.27;43.59;101221.89;117159;1187;23570;-66
2022/09/06 00:24:52;;;;;;;8.60;4.20;;;;;;;14.32;43.46;101223.59;117263;1186;22930;-66
2022/09/06 00:27:19;;;;;;;7.70;3.50;;;;;;;14.37;43.44;101220.52;117310;1186;22951;-59
2022/09/06 00:29:46;;;;;;;8.90;4.40;;;;;;;14.40;43.37;101219.05;117350;1183;22635;-59
2022/09/06 00:32:13;;;;;;;7.10;3.90;;;;;;;14.41;43.36;101216.90;117152;1188;23569;-59
2022/09/06 00:34:41;;;;;;;7.10;4.50;;;;;;;14.42;43.25;101219.71;117360;1186;23585;-66
2022/09/06 00:37:08;;;;;;;7.90;4.10;;;;;;;14.42;43.25;101220.07;117355;1186;21874;-66
2022/09/06 00:39:35;;;;;;;7.90;4.10;;;;;;;14.42;43.35;101220.95;117166;1186;21919;-66
2022/09/06 00:42:09;;;;;;;7.00;4.20;;;;;;;14.40;43.20;101222.39;117068;1188;21850;-59
2022/09/06 00:44:36;;;;;;;8.80;4.40;;;;;;;14.37;43.07;101218.73;117153;1189;21854;-66
2022/09/06 00:47:04;;;;;;;9.40;4.50;;;;;;;14.35;43.08;101218.24;117363;1183;22973;-66
2022/09/06 00:49:38;;;;;;;10.80;4.80;;;;;;;14.33;43.02;101221.62;117227;1182;23502;-66
2022/09/06 00:52:07;;;;;;;7.60;4.30;;;;;;;14.30;42.92;101220.25;117351;1186;21847;-66
2022/09/06 00:54:33;;;;;;;7.10;4.20;;;;;;;14.26;42.97;101221.55;117157;1187;23476;-58
2022/09/06 00:57:00;;;;;;;8.80;4.90;;;;;;;14.24;42.95;101222.80;117213;1181;21895;-59
2022/09/06 00:59:29;;;;;;;8.70;4.40;;;;;;;14.22;43.06;101221.42;117307;1186;23036;-66
2022/09/06 01:01:56;;;;;;;6.20;4.20;;;;;;;14.20;43.04;101219.16;117366;1185;22806;-67
2022/09/06 01:04:24;;;;;;;7.20;4.10;;;;;;;14.17;43.19;101216.02;117225;1185;21979;-59
2022/09/06 01:06:56;;;;;;;7.80;4.40;;;;;;;14.15;43.18;101214.11;117338;1189;21882;-65
2022/09/06 01:09:31;;;;;;;7.70;4.10;;;;;;;14.12;43.16;101212.56;117270;1186;21841;-58
2022/09/06 01:12:17;;;;;;;8.70;4.50;;;;;;;14.11;43.35;101211.34;117352;1186;22992;-59
2022/09/06 01:15:11;;;;;;;11.90;4.10;;;;;;;14.10;43.30;101213.30;117378;1186;23472;-58
2022/09/06 01:18:18;;;;;;;7.20;4.00;;;;;;;14.09;43.18;101214.91;117315;1186;21914;-58
2022/09/06 01:20:55;;;;;;;7.20;4.80;;;;;;;14.06;43.24;101222.53;117202;1184;23712;-66
2022/09/06 01:23:43;;;;;;;7.00;5.10;;;;;;;14.02;43.20;101219.58;117194;1180;23001;-58
2022/09/06 01:26:23;;;;;;;7.00;4.30;;;;;;;13.98;43.20;101221.74;117197;1186;23448;-66
2022/09/06 01:28:50;;;;;;;8.70;5.60;;;;;;;13.95;43.19;101219.31;117141;1188;21855;-65
2022/09/06 01:31:30;;;;;;;10.70;4.70;;;;;;;13.92;43.23;101220.93;116914;1186;23486;-66
2022/09/06 01:34:07;;;;;;;7.80;5.00;;;;;;;13.91;43.11;101223.43;117025;1186;22476;-66
2022/09/06 01:36:47;;;;;;;10.60;5.40;;;;;;;13.90;43.26;101222.55;117231;1186;21886;-66
2022/09/06 01:39:35;;;;;;;9.70;5.30;;;;;;;13.92;43.30;101218.98;117151;1187;23576;-58
2022/09/06 01:42:17;;;;;;;9.70;5.00;;;;;;;13.94;43.46;101218.79;117241;1186;21858;-66
2022/09/06 01:44:56;;;;;;;10.20;5.10;;;;;;;13.97;43.49;101217.16;116972;1188;21899;-66
2022/09/06 01:47:44;;;;;;;8.10;5.10;;;;;;;14.03;43.54;101217.44;117086;1188;24751;-59
2022/09/06 01:50:51;;;;;;;9.70;5.70;;;;;;;14.08;43.48;101214.91;117346;1183;23581;-66
2022/09/06 01:54:12;;;;;;;10.00;5.00;;;;;;;14.15;43.48;101217.98;116706;1191;23030;-58
2022/09/06 01:57:26;;;;;;;9.90;5.60;;;;;;;14.22;43.56;101222.48;116807;1189;23489;-65
2022/09/06 02:00:08;;;;;;;9.60;5.80;;;;;;;14.26;43.49;101219.08;116985;1186;21869;-65
2022/09/06 02:02:41;;;;;;;9.10;5.70;;;;;;;14.27;43.65;101215.35;117230;1182;23009;-59
2022/09/06 02:05:12;;;;;;;10.20;6.00;;;;;;;14.31;43.60;101211.94;117320;1186;22908;-59
2022/09/06 02:07:39;;;;;;;8.70;5.60;;;;;;;14.35;43.55;101210.80;117335;1183;22934;-58
2022/09/06 02:10:08;;;;;;;10.90;6.10;;;;;;;14.39;43.51;101210.94;117007;1185;23445;-58
2022/09/06 02:12:37;;;;;;;9.80;6.10;;;;;;;14.42;43.59;101209.48;117385;1185;21860;-66
2022/09/06 02:15:06;;;;;;;8.90;6.10;;;;;;;14.45;43.51;101211.92;117396;1186;21861;-59
2022/09/06 02:17:36;;;;;;;8.40;5.30;;;;;;;14.46;43.47;101212.26;117125;1187;23006;-58
2022/09/06 02:20:08;;;;;;;9.60;6.30;;;;;;;14.45;43.56;101217.38;117209;1185;21852;-59
2022/09/06 02:22:40;;;;;;;9.20;5.70;;;;;;;14.43;43.42;101213.18;117390;1185;21868;-58
2022/09/06 02:25:09;;;;;;;11.20;6.10;;;;;;;14.39;43.47;101213.06;117170;1185;22912;-66
2022/09/06 02:27:36;;;;;;;11.40;6.30;;;;;;;14.35;43.61;101213.13;117252;1184;22966;-65
2022/09/06 02:30:05;;;;;;;8.00;5.80;;;;;;;14.31;43.53;101211.42;117198;1186;22995;-59
2022/09/06 02:32:36;;;;;;;9.20;6.20;;;;;;;14.27;43.50;101210.05;117384;1183;21856;-58
2022/09/06 02:35:08;;;;;;;9.80;6.50;;;;;;;14.23;43.63;101214.52;117219;1182;22980;-65
2022/09/06 02:37:35;;;;;;;13.60;5.80;;;;;;;14.19;43.58;101215.82;117324;1186;22638;-59
2022/09/06 02:40:02;;;;;;;10.50;6.20;;;;;;;14.13;43.70;101213.61;117313;1182;21842;-65
2022/09/06 02:42:30;;;;;;;9.00;5.50;;;;;;;14.07;43.64;101220.56;117399;1186;21866;-59
2022/09/06 02:44:57;;;;;;;8.60;5.40;;;;;;;14.03;43.69;101220.62;117199;1185;24302;-59
2022/09/06 02:47:24;;;;;;;9.40;6.00;;;;;;;13.99;43.76;101223.84;117312;1186;21844;-59
2022/09/06 02:49:50;;;;;;;10.60;6.50;;;;;;;13.95;43.82;101226.71;117317;1183;24145;-66
2022/09/06 02:52:17;;;;;;;9.80;6.10;;;;;;;13.93;43.68;101232.23;117217;1180;23699;-66
2022/09/06 02:54:45;;;;;;;11.20;6.70;;;;;;;13.89;43.93;101232.27;117314;1185;23576;-58
2022/09/06 02:57:12;;;;;;;11.70;6.20;;;;;;;13.86;43.99;101231.25;117379;1183;22929;-57
2022/09/06 02:59:39;;;;;;;9.70;6.10;;;;;;;13.82;43.90;101231.84;117157;1186;22930;-65
2022/09/06 03:02:06;;;;;;;15.50;6.10;;;;;;;13.78;43.93;101237.17;117190;1188;22918;-64
2022/09/06 03:04:34;;;;;;;12.10;6.40;;;;;;;13.72;44.00;101245.70;117130;1188;21815;-58
2022/09/06 03:07:00;;;;;;;14.50;6.70;;;;;;;13.67;44.15;101243.13;117170;1183;23448;-57
2022/09/06 03:09:28;;;;;;;10.90;6.10;;;;;;;13.62;44.10;101245.11;117155;1183;22998;-57
2022/09/06 03:11:55;;;;;;;11.70;6.90;;;;;;;13.59;44.45;101244.97;117088;1186;22947;-57
2022/09/06 03:14:23;;;;;;;11.70;6.30;;;;;;;13.56;44.29;101249.23;117071;1186;23555;-57
2022/09/06 03:16:50;;;;;;;17.90;6.40;;;;;;;13.53;44.43;101251.02;117178;1185;22911;-57
2022/09/06 03:19:18;;;;;;;11.80;6.40;;;;;;;13.50;44.37;101251.92;117137;1188;22996;-65
2022/09/06 03:21:45;;;;;;;9.90;6.30;;;;;;;13.47;44.28;101251.96;117059;1186;22837;-64
2022/09/06 03:24:12;;;;;;;10.00;6.10;;;;;;;13.45;44.57;101256.75;117070;1187;22841;-57
2022/09/06 03:26:40;;;;;;;10.60;6.60;;;;;;;13.43;44.61;101254.13;117201;1186;23483;-57
2022/09/06 03:29:07;;;;;;;10.90;6.60;;;;;;;13.41;44.63;101256.61;117176;1182;24211;-57
2022/09/06 03:31:34;;;;;;;26.40;8.20;;;;;;;13.41;44.76;101254.84;117155;1189;23556;-66
2022/09/06 03:34:02;;;;;;;22.30;6.90;;;;;;;13.42;44.72;101257.66;116931;1183;24157;-57
2022/09/06 03:36:32;;;;;;;13.40;6.60;;;;;;;13.44;44.68;101258.35;116987;1188;22927;-65
2022/09/06 03:38:59;;;;;;;13.10;6.30;;;;;;;13.47;44.82;101259.89;116788;1186;22397;-64
2022/09/06 03:41:26;;;;;;;13.10;6.10;;;;;;;13.48;44.57;101260.06;117103;1182;24182;-58
2022/09/06 03:43:53;;;;;;;17.30;7.10;;;;;;;13.49;44.66;101262.52;117058;1184;21859;-58
2022/09/06 03:46:20;;;;;;;12.20;6.70;;;;;;;13.53;44.62;101263.36;116994;1187;24187;-65
2022/09/06 03:48:48;;;;;;;11.80;7.00;;;;;;;13.55;44.72;101266.87;117051;1181;23486;-65
2022/09/06 03:51:15;;;;;;;12.60;6.60;;;;;;;13.50;44.93;101273.27;117289;1186;23579;-65
2022/09/06 03:53:43;;;;;;;11.10;6.60;;;;;;;13.49;45.00;101274.86;117315;1183;22942;-58
2022/09/06 03:56:10;;;;;;;8.80;6.00;;;;;;;13.50;45.08;101277.13;117084;1185;22808;-58
2022/09/06 03:58:37;;;;;;;10.80;6.10;;;;;;;13.50;45.07;101280.67;117200;1183;22982;-65
2022/09/06 04:01:08;;;;;;;10.10;6.90;;;;;;;13.56;45.19;101282.39;116968;1186;22959;-65
2022/09/06 04:03:36;;;;;;;10.20;6.50;;;;;;;13.61;45.23;101284.09;116964;1186;23686;-56
2022/09/06 04:06:03;;;;;;;19.90;6.90;;;;;;;13.69;45.46;101284.70;119269;1186;21813;-63
2022/09/06 04:08:30;;;;;;;8.90;6.70;;;;;;;13.80;45.22;101284.23;119233;1183;22218;-58
2022/09/06 04:10:58;;;;;;;9.70;6.50;;;;;;;13.89;45.30;101278.14;119384;1185;21784;-58
2022/09/06 04:13:26;;;;;;;10.80;5.70;;;;;;;13.98;45.26;101278.73;119183;1186;21818;-64
2022/09/06 04:15:53;;;;;;;13.40;6.30;;;;;;;14.08;45.29;101278.09;119275;1183;21833;-64
2022/09/06 04:18:20;;;;;;;9.90;6.10;;;;;;;14.15;45.18;101275.88;118583;1187;21845;-57
2022/09/06 04:20:49;;;;;;;9.90;6.00;;;;;;;14.19;45.13;101277.05;117188;1187;22109;-64
2022/09/06 04:23:16;;;;;;;10.80;7.30;;;;;;;14.24;45.13;101277.89;117131;1187;21852;-63
2022/09/06 04:25:50;;;;;;;10.80;6.40;;;;;;;14.31;45.23;101278.15;117324;1186;22871;-58
2022/09/06 04:28:18;;;;;;;11.00;6.30;;;;;;;14.39;45.01;101278.73;117063;1186;22624;-64
2022/09/06 04:30:50;;;;;;;12.00;7.10;;;;;;;14.48;45.06;101277.73;117040;1183;24165;-58
2022/09/06 04:33:17;;;;;;;9.10;6.60;;;;;;;14.54;45.14;101280.83;117199;1182;21911;-65
2022/09/06 04:35:48;;;;;;;13.30;6.80;;;;;;;14.61;45.19;101280.55;117215;1182;21863;-65
2022/09/06 04:38:15;;;;;;;10.40;6.90;;;;;;;14.69;45.28;101277.80;117195;1186;21899;-58
2022/09/06 04:40:42;;;;;;;11.90;7.10;;;;;;;14.78;45.14;101275.73;117157;1182;23470;-65
2022/09/06 04:43:11;;;;;;;15.20;6.70;;;;;;;14.87;45.06;101277.91;117182;1186;22791;-64
2022/09/06 04:45:41;;;;;;;17.30;7.10;;;;;;;14.96;45.19;101279.52;117153;1182;21854;-64
2022/09/06 04:48:08;;;;;;;11.80;7.10;;;;;;;15.06;45.07;101276.89;117171;1187;21865;-58
2022/09/06 04:50:36;;;;;;;11.20;6.10;;;;;;;15.16;45.11;101276.90;117036;1182;23555;-64
2022/09/06 04:53:04;;;;;;;13.40;6.80;;;;;;;15.24;45.19;101275.16;116977;1186;22881;-65
2022/09/06 04:55:32;;;;;;;10.40;5.70;;;;;;;15.33;45.06;101266.34;117113;1186;24162;-65
2022/09/06 04:58:00;;;;;;;8.30;6.10;;;;;;;15.42;44.90;101262.66;117132;1187;23266;-64
2022/09/06 05:00:27;;;;;;;8.60;5.60;;;;;;;15.51;44.91;101259.11;117097;1188;23544;-58
2022/09/06 05:02:54;;;;;;;8.50;5.30;;;;;;;15.61;44.84;101260.89;117010;1183;22907;-58
2022/09/06 05:05:22;;;;;;;8.80;5.70;;;;;;;15.72;44.77;101261.55;117017;1186;22632;-64
2022/09/06 05:07:53;;;;;;;10.10;6.00;;;;;;;15.84;44.87;101260.63;116918;1185;23573;-64
2022/09/06 05:10:21;;;;;;;8.70;5.80;;;;;;;15.97;44.78;101258.96;117090;1186;22983;-57
2022/09/06 05:12:49;;;;;;;8.70;5.50;;;;;;;16.11;44.72;101260.98;117054;1186;22244;-64
2022/09/06 05:15:16;;;;;;;9.70;5.60;;;;;;;16.22;44.64;101258.43;118426;1183;23550;-64
2022/09/06 05:17:44;;;;;;;8.50;5.80;;;;;;;16.37;44.60;101267.67;117312;1187;23598;-58
2022/09/06 05:20:12;;;;;;;10.70;6.50;;;;;;;16.50;44.62;101272.17;117044;1186;22047;-65
2022/09/06 05:22:39;;;;;;;11.90;6.70;;;;;;;16.65;44.51;101273.95;116892;1188;22655;-65
2022/09/06 05:25:07;;;;;;;13.40;7.40;;;;;;;16.78;44.30;101273.63;117058;1186;22813;-57
2022/09/06 05:27:34;;;;;;;10.60;6.70;;;;;;;16.90;44.35;101269.10;117068;1186;21872;-65
2022/09/06 05:30:03;;;;;;;9.30;6.40;;;;;;;17.01;44.29;101271.88;116867;1186;24162;-67
2022/09/06 05:32:30;;;;;;;8.30;6.20;;;;;;;17.15;44.27;101272.77;117015;1187;21867;-58
2022/09/06 05:34:58;;;;;;;10.50;6.20;;;;;;;17.28;44.09;101269.23;116907;1187;21876;-59
2022/09/06 05:37:25;;;;;;;10.90;6.30;;;;;;;17.39;44.01;101265.41;117202;1182;22930;-66
2022/09/06 05:39:52;;;;;;;9.10;5.40;;;;;;;17.52;44.00;101273.22;117112;1186;22804;-58
2022/09/06 05:42:20;;;;;;;7.40;5.80;;;;;;;17.65;43.96;101270.93;117126;1183;21855;-59
2022/09/06 05:44:47;;;;;;;9.80;5.70;;;;;;;17.79;43.93;101271.25;117178;1186;23516;-66
2022/09/06 05:47:14;;;;;;;10.50;5.90;;;;;;;17.92;43.85;101263.05;117090;1188;23569;-58
2022/09/06 05:49:42;;;;;;;9.30;5.50;;;;;;;18.09;43.73;101262.77;117070;1189;23247;-59
2022/09/06 05:52:09;;;;;;;16.20;6.20;;;;;;;18.24;43.42;101260.73;117203;1186;21864;-59
2022/09/06 05:54:37;;;;;;;9.30;5.50;;;;;;;18.38;43.33;101254.63;117233;1186;24162;-59
2022/09/06 05:57:04;;;;;;;8.50;5.50;;;;;;;18.57;43.27;101251.90;117091;1187;22630;-64
2022/09/06 05:59:31;;;;;;;11.40;5.80;;;;;;;18.80;43.27;101257.77;117118;1186;21855;-56
2022/09/06 06:01:59;;;;;;;8.30;5.20;;;;;;;19.01;43.11;101255.48;116960;1187;23472;-64
2022/09/06 06:04:33;;;;;;;9.60;6.40;;;;;;;19.25;43.02;101253.60;117151;1188;23493;-64
2022/09/06 06:07:01;;;;;;;10.20;5.90;;;;;;;19.52;42.90;101259.43;117120;1184;22813;-64
2022/09/06 06:09:29;;;;;;;9.50;5.30;;;;;;;19.80;42.69;101257.36;117367;1186;21854;-57
2022/09/06 06:11:56;;;;;;;15.10;5.50;;;;;;;20.09;42.69;101260.92;117227;1183;23459;-64
2022/09/06 06:14:24;;;;;;;8.70;5.60;;;;;;;20.38;42.31;101261.25;116947;1188;23474;-57
2022/09/06 06:16:52;;;;;;;9.30;5.00;;;;;;;20.57;42.17;101255.67;119149;1186;21875;-58
2022/09/06 06:19:19;;;;;;;9.20;5.40;;;;;;;20.82;42.10;101252.73;119092;1186;21814;-58
2022/09/06 06:21:46;;;;;;;9.30;6.20;;;;;;;21.04;41.51;101252.53;119239;1186;21839;-64
2022/09/06 06:24:13;;;;;;;8.80;5.20;;;;;;;21.14;41.06;101254.98;117539;1186;22928;-65
2022/09/06 06:26:40;;;;;;;7.30;4.90;;;;;;;21.20;41.04;101252.22;116932;1186;21861;-65
2022/09/06 06:29:08;;;;;;;12.90;5.50;;;;;;;21.34;41.12;101253.96;117027;1182;21864;-65
2022/09/06 06:31:37;;;;;;;16.40;5.90;;;;;;;21.57;41.31;101252.41;116949;1185;22961;-65
2022/09/06 06:34:06;;;;;;;9.80;4.60;;;;;;;21.82;41.23;101246.83;116810;1188;22008;-58
2022/09/06 06:36:34;;;;;;;14.40;5.80;;;;;;;22.08;40.80;101248.87;117140;1186;22969;-65
2022/09/06 06:39:03;;;;;;;7.50;4.80;;;;;;;22.34;40.61;101245.71;116991;1186;21859;-58
2022/09/06 06:41:30;;;;;;;8.90;4.90;;;;;;;22.56;40.26;101246.65;117082;1189;23601;-57
2022/09/06 06:44:02;;;;;;;9.70;5.10;;;;;;;22.75;39.79;101250.54;117121;1182;23461;-66
2022/09/06 06:46:34;;;;;;;7.50;4.90;;;;;;;22.88;39.47;101252.58;117169;1189;21860;-65
2022/09/06 06:49:01;;;;;;;9.40;5.50;;;;;;;23.00;39.37;101255.91;117167;1183;23639;-64
2022/09/06 06:51:30;;;;;;;7.40;4.70;;;;;;;23.09;39.33;101255.27;116905;1186;22915;-65
2022/09/06 06:53:57;;;;;;;8.30;4.80;;;;;;;23.25;39.09;101256.83;117126;1186;23599;-66
2022/09/06 06:56:29;;;;;;;10.10;4.70;;;;;;;23.37;39.19;101256.55;117131;1186;23449;-65
2022/09/06 06:58:57;;;;;;;8.10;5.00;;;;;;;23.49;38.80;101255.74;117295;1186;22796;-58
2022/09/06 07:01:25;;;;;;;9.80;4.50;;;;;;;23.61;38.82;101259.06;117398;1183;21864;-58
2022/09/06 07:03:53;;;;;;;12.60;6.10;;;;;;;23.83;38.74;101258.06;117142;1187;23656;-58
2022/09/06 07:06:20;;;;;;;7.10;4.60;;;;;;;24.04;38.51;101255.69;117181;1182;22996;-65
2022/09/06 07:09:08;;;;;;;6.10;4.40;;;;;;;24.27;38.35;101256.78;117300;1182;21884;-65
2022/09/06 07:11:37;;;;;;;8.40;4.70;;;;;;;24.45;37.88;101252.94;117226;1186;22989;-58
2022/09/06 07:14:04;;;;;;;7.80;4.70;;;;;;;24.54;37.83;101255.81;117093;1188;24169;-58
2022/09/06 07:16:31;;;;;;;11.90;5.40;;;;;;;24.58;37.50;101254.13;117406;1182;23600;-59
2022/09/06 07:18:58;;;;;;;6.40;4.30;;;;;;;24.67;37.48;101257.58;117232;1186;23471;-66
2022/09/06 07:21:26;;;;;;;6.00;4.10;;;;;;;24.80;37.06;101257.23;117238;1182;21855;-66
2022/09/06 07:24:08;;;;;;;8.10;4.10;;;;;;;24.91;37.11;101253.54;117263;1183;23446;-60
2022/09/06 07:26:37;;;;;;;8.10;4.50;;;;;;;25.10;37.05;101253.30;117286;1182;21856;-60
2022/09/06 07:29:06;;;;;;;13.90;8.90;;;;;;;25.37;36.89;101252.79;117330;1182;22925;-59
2022/09/06 07:31:33;;;;;;;9.10;5.30;;;;;;;25.59;36.56;101254.89;117243;1188;22247;-59
2022/09/06 07:34:20;;;;;;;7.70;4.70;;;;;;;25.77;36.51;101255.77;117194;1186;22627;-67
2022/09/06 07:36:54;;;;;;;6.00;4.10;;;;;;;25.95;36.21;101249.95;117314;1186;21876;-66
2022/09/06 07:39:21;;;;;;;8.10;4.10;;;;;;;26.06;35.88;101251.38;117345;1182;23659;-67
2022/09/06 07:41:49;;;;;;;10.00;4.70;;;;;;;26.20;36.01;101253.60;116943;1183;23464;-67
2022/09/06 07:44:20;;;;;;;6.70;4.20;;;;;;;26.42;35.43;101252.40;117217;1182;23018;-60
2022/09/06 07:46:47;;;;;;;8.40;4.60;;;;;;;26.42;34.63;101248.56;117274;1186;23014;-60
2022/09/06 07:49:14;;;;;;;7.80;4.30;;;;;;;26.37;34.91;101247.09;117058;1186;21899;-65
2022/09/06 07:51:41;;;;;;;8.80;4.50;;;;;;;26.49;34.94;101250.31;117116;1186;21854;-67
2022/09/06 07:54:08;;;;;;;8.30;4.70;;;;;;;26.63;34.60;101246.66;117112;1183;22759;-60
2022/09/06 07:56:55;;;;;;;7.80;4.80;;;;;;;26.76;34.79;101249.44;117089;1182;22922;-67
2022/09/06 07:59:22;;;;;;;9.30;5.30;;;;;;;26.96;34.90;101250.23;117152;1182;22965;-60
2022/09/06 08:01:52;;;;;;;7.50;4.80;;;;;;;27.16;34.40;101245.13;117025;1182;22685;-66
2022/09/06 08:04:19;;;;;;;8.50;4.90;;;;;;;27.30;34.33;101242.41;117183;1183;24013;-60
2022/09/06 08:06:47;;;;;;;12.60;6.30;;;;;;;27.43;33.47;101237.20;117028;1186;22619;-68
2022/09/06 08:09:34;;;;;;;14.30;6.20;;;;;;;27.48;33.63;101235.95;116847;1186;21858;-68
2022/09/06 08:12:05;;;;;;;11.60;6.10;;;;;;;27.59;33.93;101235.14;117036;1187;23580;-67
2022/09/06 08:14:33;;;;;;;12.40;5.30;;;;;;;27.68;33.67;101234.00;117111;1188;21942;-68
2022/09/06 08:17:02;;;;;;;6.40;4.00;;;;;;;27.80;33.83;101233.86;117183;1186;22629;-67
2022/09/06 08:19:29;;;;;;;8.50;3.70;;;;;;;27.98;32.97;101234.38;117190;1186;21847;-68
2022/09/06 08:21:56;;;;;;;8.90;4.20;;;;;;;27.93;32.04;101227.89;117070;1182;23558;-67
2022/09/06 08:24:23;;;;;;;5.80;3.70;;;;;;;27.80;32.46;101230.61;116961;1186;22973;-67
2022/09/06 08:26:51;;;;;;;9.40;4.20;;;;;;;27.67;32.47;101235.16;117054;1187;21882;-68
2022/09/06 08:29:18;;;;;;;7.30;4.50;;;;;;;27.61;32.72;101234.64;117084;1187;21908;-67
2022/09/06 08:31:46;;;;;;;7.40;3.60;;;;;;;27.60;31.48;101233.27;117130;1186;23557;-66
2022/09/06 08:34:13;;;;;;;7.90;3.80;;;;;;;27.43;30.50;101229.98;117127;1185;23549;-60
2022/09/06 08:36:41;;;;;;;10.90;4.20;;;;;;;27.12;30.31;101233.34;117017;1183;24155;-59
2022/09/06 08:39:08;;;;;;;7.80;4.20;;;;;;;26.79;30.75;101229.98;117078;1182;21869;-65
2022/09/06 08:41:44;;;;;;;7.90;4.80;;;;;;;26.58;31.12;101222.14;117306;1186;21921;-64
2022/09/06 08:44:16;;;;;;;13.00;3.70;;;;;;;26.52;32.06;101220.23;117120;1186;23017;-60
2022/09/06 08:47:14;;;;;;;7.70;3.80;;;;;;;26.62;31.90;101217.75;116958;1188;22934;-65
2022/09/06 08:49:46;;;;;;;7.60;3.90;;;;;;;26.74;31.66;101219.14;116975;1189;22920;-63
2022/09/06 08:52:36;;;;;;;5.70;3.50;;;;;;;26.89;31.47;101217.96;117021;1187;21885;-59
2022/09/06 08:55:30;;;;;;;6.70;3.80;;;;;;;27.15;31.67;101211.88;117194;1185;24162;-65
2022/09/06 08:58:34;;;;;;;7.10;4.20;;;;;;;27.50;31.31;101205.31;117092;1184;23453;-59
2022/09/06 09:01:12;;;;;;;5.60;3.60;;;;;;;27.90;30.75;101204.14;117212;1182;22409;-60
2022/09/06 09:03:39;;;;;;;7.30;4.20;;;;;;;28.17;30.64;101203.65;117090;1185;22155;-65
2022/09/06 09:06:08;;;;;;;8.30;4.20;;;;;;;28.25;30.84;101196.03;117075;1184;22995;-65
2022/09/06 09:08:35;;;;;;;6.30;3.80;;;;;;;28.27;30.58;101195.89;118689;1182;22915;-65
2022/09/06 09:11:05;;;;;;;7.60;4.60;;;;;;;28.23;30.11;101190.94;117468;1185;23553;-65
2022/09/06 09:13:38;;;;;;;8.00;4.00;;;;;;;28.25;30.12;101186.61;117251;1185;22918;-59
2022/09/06 09:16:05;;;;;;;10.40;4.00;;;;;;;28.37;30.76;101183.91;117301;1186;21892;-59
2022/09/06 09:18:34;;;;;;;7.60;4.80;;;;;;;28.64;30.35;101184.65;117364;1186;22997;-66
2022/09/06 09:21:01;;;;;;;8.80;4.80;;;;;;;28.71;29.22;101188.80;117272;1182;23542;-60
2022/09/06 09:23:29;;;;;;;14.00;4.70;;;;;;;28.68;29.02;101192.48;117035;1186;23732;-60
2022/09/06 09:26:12;;;;;;;7.70;4.00;;;;;;;28.45;28.35;101190.88;117489;1182;22946;-60
2022/09/06 09:29:11;;;;;;;6.60;3.90;;;;;;;28.05;28.99;101189.28;117284;1188;22928;-65
2022/09/06 09:31:38;;;;;;;5.80;3.30;;;;;;;27.67;28.71;101189.69;117164;1184;22946;-59
2022/09/06 09:34:10;;;;;;;7.90;3.30;;;;;;;27.36;28.69;101190.64;117101;1188;22891;-66
2022/09/06 09:36:37;;;;;;;6.90;3.70;;;;;;;27.20;29.48;101193.55;116979;1188;23673;-59
2022/09/06 09:39:09;;;;;;;6.50;3.30;;;;;;;27.14;29.34;101192.17;117143;1186;21861;-66
2022/09/06 09:41:38;;;;;;;12.30;4.30;;;;;;;27.09;29.74;101193.92;117299;1186;23002;-59
2022/09/06 09:44:08;;;;;;;9.90;5.10;;;;;;;27.12;29.73;101192.98;117035;1186;21921;-66
2022/09/06 09:46:36;;;;;;;;;;;;;;;27.17;29.49;101193.77;117081;1188;21956;-67
2022/09/06 09:49:09;;;;;;;8.30;3.80;;;;;;;27.19;29.82;101188.89;117245;1185;21855;-68
2022/09/06 09:51:46;;;;;;;8.70;3.60;;;;;;;27.38;29.91;101187.06;117031;1182;22714;-68
2022/09/06 09:54:28;;;;;;;5.20;3.10;;;;;;;27.82;30.17;101182.88;116813;1186;21872;-61
2022/09/06 09:56:55;;;;;;;6.10;3.50;;;;;;;28.31;30.06;101182.40;117079;1188;22937;-62
2022/09/06 09:59:52;;;;;;;5.60;3.50;;;;;;;28.78;29.64;101180.88;116966;1187;22952;-68
2022/09/06 10:02:33;;;;;;;4.40;3.00;;;;;;;29.10;28.97;101177.11;117007;1186;23000;-68
2022/09/06 10:05:16;;;;;;;11.30;3.20;;;;;;;29.11;28.28;101175.96;117123;1183;23451;-68
2022/09/06 10:07:50;;;;;;;5.10;2.70;;;;;;;28.95;28.14;101179.38;117094;1186;23649;-67
2022/09/06 10:10:28;;;;;;;5.60;2.80;;;;;;;28.72;27.49;101185.64;117179;1188;22925;-69
2022/09/06 10:13:28;;;;;;;4.80;2.60;;;;;;;28.54;28.24;101181.37;118670;1182;24232;-67
2022/09/06 10:15:59;;;;;;;5.60;2.60;;;;;;;28.62;28.41;101177.32;119223;1186;21807;-68
2022/09/06 10:18:36;;;;;;;6.80;3.40;;;;;;;28.96;28.70;101172.22;119054;1186;21827;-67
2022/09/06 10:21:05;;;;;;;7.00;3.00;;;;;;;29.34;28.12;101174.91;117493;1188;21921;-68
2022/09/06 10:23:36;;;;;;;4.10;2.90;;;;;;;29.65;27.45;101168.52;117031;1182;22928;-66
2022/09/06 10:26:48;;;;;;;5.30;2.80;;;;;;;29.78;27.15;101172.34;117621;1182;21862;-67
2022/09/06 10:29:33;;;;;;;6.00;3.20;;;;;;;29.78;27.73;101172.67;117032;1186;21826;-60
2022/09/06 10:32:07;;;;;;;7.50;3.40;;;;;;;30.03;27.34;101170.48;117175;1186;22987;-67
2022/09/06 10:34:43;;;;;;;5.90;3.50;;;;;;;30.35;27.02;101165.73;116912;1187;24094;-67
2022/09/06 10:37:19;;;;;;;4.90;2.90;;;;;;;30.66;27.04;101166.55;117170;1186;21890;-60
2022/09/06 10:40:06;;;;;;;5.00;3.30;;;;;;;30.64;25.78;101166.37;116898;1187;21866;-60
2022/09/06 10:42:42;;;;;;;6.10;3.40;;;;;;;30.23;26.64;101166.85;117129;1183;21861;-67
2022/09/06 10:45:15;;;;;;;5.70;3.20;;;;;;;29.97;27.22;101165.77;117156;1185;23586;-67
2022/09/06 10:47:46;;;;;;;6.80;3.30;;;;;;;29.96;27.64;101160.38;117060;1188;21860;-67
2022/09/06 10:50:14;;;;;;;7.70;3.10;;;;;;;30.08;27.45;101159.12;117018;1182;22848;-67
2022/09/06 10:52:42;;;;;;;5.40;3.20;;;;;;;30.14;27.07;101157.71;116877;1188;21851;-67
2022/09/06 10:55:12;;;;;;;5.00;3.30;;;;;;;30.27;27.42;101156.80;116946;1188;21868;-67
2022/09/06 10:57:54;;;;;;;6.10;3.80;;;;;;;30.41;26.50;101154.73;117076;1188;22822;-67
2022/09/06 11:00:45;;;;;;;6.60;3.70;;;;;;;30.28;25.71;101149.63;117097;1188;22925;-67
2022/09/06 11:03:18;;;;;;;7.00;3.60;;;;;;;29.88;25.90;101156.14;117104;1187;21875;-61
2022/09/06 11:06:07;;;;;;;4.70;3.20;;;;;;;29.52;25.63;101152.73;117063;1182;23642;-68
2022/09/06 11:08:53;;;;;;;5.50;3.70;;;;;;;29.14;26.31;101150.06;117138;1185;21854;-60
2022/09/06 11:11:47;;;;;;;7.60;3.90;;;;;;;28.88;26.34;101144.88;116970;1188;21887;-67
2022/09/06 11:14:14;;;;;;;7.80;4.00;;;;;;;28.73;26.74;101146.56;117077;1182;23573;-67
2022/09/06 11:16:48;;;;;;;5.70;3.90;;;;;;;28.66;27.06;101145.09;117127;1188;21866;-67
2022/09/06 11:19:21;;;;;;;5.40;3.30;;;;;;;28.61;27.29;101140.98;117105;1183;23454;-68
2022/09/06 11:22:27;;;;;;;9.20;6.10;;;;;;;28.55;26.65;101139.30;117253;1186;23687;-68
2022/09/06 11:25:28;;;;;;;6.10;3.60;;;;;;;28.26;26.71;101142.52;116964;1186;24316;-68
2022/09/06 11:27:56;;;;;;;4.80;3.30;;;;;;;27.94;26.93;101143.58;116940;1188;22922;-65
2022/09/06 11:30:24;;;;;;;5.60;3.50;;;;;;;27.71;26.70;101143.61;117055;1188;22830;-68
2022/09/06 11:33:19;;;;;;;7.20;3.50;;;;;;;27.50;26.76;101140.42;117060;1182;22927;-61
2022/09/06 11:35:46;;;;;;;8.00;3.80;;;;;;;27.30;27.10;101134.46;117047;1186;23579;-61